createdAt,value
2019-05-21T00:00:04.334Z,98928.74
2019-05-21T00:02:54.479Z,98940.77
2019-05-21T00:05:45.192Z,98953.38
2019-05-21T00:08:35.036Z,98955.09
2019-05-21T00:11:25.166Z,98949.72
2019-05-21T00:14:15.051Z,98952.78
2019-05-21T00:17:04.904Z,98952.31
2019-05-21T00:19:54.734Z,98956.16
2019-05-21T00:22:44.701Z,98960.59
2019-05-21T00:25:34.723Z,98959.80
2019-05-21T00:28:41.386Z,98966.92
2019-05-21T00:32:25.466Z,98967.77
2019-05-21T00:36:09.644Z,98961.34
2019-05-21T00:39:53.817Z,98960.72
2019-05-21T00:42:46.338Z,98969.55
2019-05-21T00:45:36.195Z,98964.53
2019-05-21T00:48:26.053Z,98966.73
2019-05-21T00:51:15.922Z,98971.13
2019-05-21T00:54:05.521Z,98961.94
2019-05-21T00:56:55.374Z,98964.11
2019-05-21T00:59:44.925Z,98960.88
2019-05-21T01:02:35.053Z,98963.08
2019-05-21T01:05:25.228Z,98967.70
2019-05-21T01:08:15.519Z,98967.73
2019-05-21T01:11:05.771Z,98981.42
2019-05-21T01:13:55.801Z,98978.48
2019-05-21T01:16:45.987Z,98979.34
2019-05-21T01:19:36.117Z,98978.86
2019-05-21T01:22:25.853Z,98984.62
2019-05-21T01:25:16.110Z,98983.28
2019-05-21T01:28:06.530Z,98989.02
2019-05-21T01:30:56.426Z,99000.98
2019-05-21T01:33:46.312Z,99002.34
2019-05-21T01:36:36.413Z,99005.58
2019-05-21T01:39:26.542Z,99008.30
2019-05-21T01:42:16.403Z,99008.30
2019-05-21T01:45:06.922Z,99002.31
2019-05-21T01:47:56.658Z,99007.51
2019-05-21T01:50:46.552Z,99009.93
2019-05-21T01:53:36.695Z,99005.85
2019-05-21T01:56:27.117Z,99011.59
2019-05-21T01:59:17.329Z,99020.55
2019-05-21T02:02:07.520Z,99017.61
2019-05-21T02:04:57.398Z,99022.51
2019-05-21T02:07:47.458Z,99024.97
2019-05-21T02:10:37.562Z,99011.70
2019-05-21T02:13:27.558Z,99013.89
2019-05-21T02:16:17.568Z,99017.98
2019-05-21T02:19:07.180Z,99022.09
2019-05-21T02:21:57.583Z,99016.95
2019-05-21T02:24:47.558Z,99016.15
2019-05-21T02:27:37.319Z,99021.06
2019-05-21T02:30:26.969Z,99018.91
2019-05-21T02:33:16.882Z,99011.34
2019-05-21T02:36:07.366Z,99019.23
2019-05-21T02:38:57.024Z,99013.27
2019-05-21T02:41:46.516Z,99015.19
2019-05-21T02:44:36.845Z,99016.56
2019-05-21T02:47:27.010Z,99015.26
2019-05-21T02:50:17.245Z,99013.94
2019-05-21T02:53:07.218Z,99018.32
2019-05-21T02:55:57.271Z,99015.07
2019-05-21T02:58:47.493Z,99021.34
2019-05-21T03:01:43.474Z,99018.64
2019-05-21T03:04:33.388Z,99019.47
2019-05-21T03:07:25.692Z,99025.48
2019-05-21T03:10:14.569Z,99027.95
2019-05-21T03:13:04.496Z,99026.89
2019-05-21T03:15:54.606Z,99026.37
2019-05-21T03:18:44.836Z,99028.82
2019-05-21T03:21:34.494Z,99041.34
2019-05-21T03:24:25.533Z,99039.19
2019-05-21T03:27:15.441Z,99043.84
2019-05-21T03:30:05.373Z,99036.53
2019-05-21T03:32:55.546Z,99044.14
2019-05-21T03:35:45.697Z,99045.77
2019-05-21T03:38:35.594Z,99044.42
2019-05-21T03:41:25.097Z,99036.56
2019-05-21T03:44:15.814Z,99044.70
2019-05-21T03:47:05.859Z,99043.89
2019-05-21T03:49:56.041Z,99047.71
2019-05-21T03:52:46.052Z,99056.64
2019-05-21T03:55:35.934Z,99060.17
2019-05-21T03:58:25.551Z,99052.57
2019-05-21T04:01:19.397Z,99059.09
2019-05-21T04:04:18.672Z,99066.41
2019-05-21T04:07:09.382Z,99062.59
2019-05-21T04:09:59.267Z,99065.30
2019-05-21T04:13:07.274Z,99065.81
2019-05-21T04:16:22.384Z,99073.95
2019-05-21T04:19:19.411Z,99066.89
2019-05-21T04:22:16.787Z,99073.38
2019-05-21T04:25:06.863Z,99077.13
2019-05-21T04:27:56.484Z,99085.50
2019-05-21T04:30:46.535Z,99086.02
2019-05-21T04:33:36.485Z,99083.55
2019-05-21T04:36:26.392Z,99082.95
2019-05-21T04:39:17.332Z,99085.33
2019-05-21T04:42:07.258Z,99092.61
2019-05-21T04:44:57.465Z,99084.41
2019-05-21T04:47:47.404Z,99087.86
2019-05-21T04:50:36.836Z,99095.72
2019-05-21T04:53:26.478Z,99097.81
2019-05-21T04:56:16.362Z,99093.37
2019-05-21T04:59:06.494Z,99088.70
2019-05-21T05:01:56.408Z,99094.83
2019-05-21T05:04:46.534Z,99101.55
2019-05-21T05:07:36.365Z,99103.30
2019-05-21T05:10:26.194Z,99108.62
2019-05-21T05:13:17.566Z,99107.91
2019-05-21T05:16:07.540Z,99116.16
2019-05-21T05:18:57.367Z,99122.27
2019-05-21T05:21:47.140Z,99126.48
2019-05-21T05:24:37.356Z,99125.78
2019-05-21T05:27:27.371Z,99127.50
2019-05-21T05:30:18.158Z,99133.36
2019-05-21T05:33:07.919Z,99137.02
2019-05-21T05:35:58.194Z,99133.36
2019-05-21T05:38:48.388Z,99133.73
2019-05-21T05:41:38.352Z,99135.70
2019-05-21T05:44:27.951Z,99137.99
2019-05-21T05:47:18.034Z,99141.66
2019-05-21T05:50:10.360Z,99142.31
2019-05-21T05:53:00.375Z,99142.52
2019-05-21T05:55:50.361Z,99136.27
2019-05-21T05:58:40.461Z,99141.87
2019-05-21T06:01:32.302Z,99138.69
2019-05-21T06:04:22.492Z,99145.81
2019-05-21T06:07:12.423Z,99145.08
2019-05-21T06:10:02.539Z,99151.67
2019-05-21T06:12:53.520Z,99154.98
2019-05-21T06:15:43.282Z,99161.53
2019-05-21T06:18:35.500Z,99160.25
2019-05-21T06:21:24.730Z,99168.80
2019-05-21T06:24:15.044Z,99163.47
2019-05-21T06:27:07.726Z,99161.13
2019-05-21T06:29:57.971Z,99160.41
2019-05-21T06:32:47.873Z,99158.73
2019-05-21T06:35:37.789Z,99165.02
2019-05-21T06:38:27.757Z,99165.60
2019-05-21T06:41:18.258Z,99165.28
2019-05-21T06:44:08.503Z,99168.27
2019-05-21T06:47:01.932Z,99165.52
2019-05-21T06:49:51.525Z,99176.30
2019-05-21T06:52:41.225Z,99144.30
2019-05-21T06:55:31.024Z,99183.55
2019-05-21T06:58:20.521Z,99192.95
2019-05-21T07:01:10.627Z,99196.58
2019-05-21T07:04:00.809Z,99196.94
2019-05-21T07:06:51.387Z,99205.32
2019-05-21T07:09:41.610Z,99210.90
2019-05-21T07:12:31.530Z,99212.62
2019-05-21T07:15:21.570Z,99206.78
2019-05-21T07:18:12.793Z,99200.91
2019-05-21T07:21:03.770Z,99210.20
2019-05-21T07:23:53.805Z,99211.38
2019-05-21T07:26:44.414Z,99216.18
2019-05-21T07:29:46.182Z,99220.08
2019-05-21T07:32:36.757Z,99225.70
2019-05-21T07:35:26.676Z,99222.52
2019-05-21T07:38:19.774Z,99225.56
2019-05-21T07:41:09.378Z,99227.67
2019-05-21T07:43:59.144Z,99227.27
2019-05-21T07:46:49.871Z,99235.95
2019-05-21T07:49:39.920Z,99235.14
2019-05-21T07:52:30.520Z,99234.91
2019-05-21T07:55:20.626Z,99240.55
2019-05-21T07:58:10.417Z,99239.98
2019-05-21T08:01:01.546Z,99252.45
2019-05-21T08:03:53.536Z,99251.45
2019-05-21T08:06:44.256Z,99244.63
2019-05-21T08:09:34.160Z,99239.22
2019-05-21T08:12:37.889Z,99237.94
2019-05-21T08:15:16.828Z,99240.43
2019-05-21T08:18:06.758Z,99239.72
2019-05-21T08:20:56.295Z,99240.52
2019-05-21T08:23:46.002Z,99246.83
2019-05-21T08:26:35.838Z,99239.87
2019-05-21T08:29:25.679Z,99244.70
2019-05-21T08:32:15.675Z,99251.02
2019-05-21T08:35:06.131Z,99249.90
2019-05-21T08:37:55.913Z,99253.95
2019-05-21T08:40:46.087Z,99246.50
2019-05-21T08:43:36.354Z,99253.70
2019-05-21T08:46:26.630Z,99258.19
2019-05-21T08:49:16.987Z,99259.64
2019-05-21T08:52:06.905Z,99267.09
2019-05-21T08:54:56.815Z,99271.66
2019-05-21T08:58:04.994Z,99270.68
2019-05-21T09:00:39.026Z,99272.80
2019-05-21T09:03:29.030Z,99269.75
2019-05-21T09:06:19.231Z,99273.73
2019-05-21T09:09:10.435Z,99275.70
2019-05-21T09:12:00.489Z,99281.78
2019-05-21T09:14:50.621Z,99281.31
2019-05-21T09:17:40.637Z,99291.05
2019-05-21T09:20:30.815Z,99282.14
2019-05-21T09:23:20.671Z,99280.47
2019-05-21T09:26:10.712Z,99280.31
2019-05-21T09:29:00.737Z,99280.60
2019-05-21T09:31:51.721Z,99283.31
2019-05-21T09:34:48.580Z,99287.09
2019-05-21T09:37:33.144Z,99287.02
2019-05-21T09:40:25.439Z,99288.05
2019-05-21T09:43:15.079Z,99294.03
2019-05-21T09:46:05.598Z,99292.23
2019-05-21T09:48:56.192Z,99302.63
2019-05-21T09:51:46.610Z,99293.20
2019-05-21T09:54:35.806Z,99292.63
2019-05-21T09:57:34.937Z,99300.69
2019-05-21T10:00:50.772Z,99300.58
2019-05-21T10:03:42.954Z,99304.95
2019-05-21T10:06:33.120Z,99307.06
2019-05-21T10:09:23.619Z,99307.05
2019-05-21T10:12:13.873Z,99309.23
2019-05-21T10:15:04.395Z,99311.55
2019-05-21T10:17:54.277Z,99313.00
2019-05-21T10:20:44.511Z,99313.88
2019-05-21T10:23:34.389Z,99322.00
2019-05-21T10:26:25.802Z,99321.54
2019-05-21T10:29:15.856Z,99312.02
2019-05-21T10:32:05.396Z,99321.74
2019-05-21T10:34:55.251Z,99312.01
2019-05-21T10:37:54.479Z,99320.44
2019-05-21T10:40:39.012Z,99322.00
2019-05-21T10:43:29.078Z,99328.03
2019-05-21T10:46:19.261Z,99324.03
2019-05-21T10:49:09.469Z,99321.63
2019-05-21T10:51:59.653Z,99320.89
2019-05-21T10:54:49.895Z,99325.30
2019-05-21T10:57:39.418Z,99322.06
2019-05-21T11:00:30.170Z,99322.37
2019-05-21T11:03:24.521Z,99321.59
2019-05-21T11:06:14.715Z,99330.00
2019-05-21T11:09:10.361Z,99333.41
2019-05-21T11:12:00.683Z,99337.75
2019-05-21T11:14:50.985Z,99338.40
2019-05-21T11:17:53.607Z,99328.39
2019-05-21T11:20:32.588Z,99330.98
2019-05-21T11:23:23.501Z,99328.06
2019-05-21T11:26:13.509Z,99332.13
2019-05-21T11:29:03.590Z,99327.78
2019-05-21T11:31:57.398Z,99330.55
2019-05-21T11:34:45.627Z,99334.38
2019-05-21T11:37:35.744Z,99332.94
2019-05-21T11:40:26.578Z,99330.11
2019-05-21T11:43:16.564Z,99329.95
2019-05-21T11:46:06.914Z,99329.39
2019-05-21T11:48:56.522Z,99335.33
2019-05-21T11:51:46.478Z,99335.30
2019-05-21T11:54:36.637Z,99335.98
2019-05-21T11:57:26.215Z,99353.34
2019-05-21T12:00:21.284Z,99346.84
2019-05-21T12:03:09.181Z,99338.47
2019-05-21T12:05:59.299Z,99345.98
2019-05-21T12:08:56.712Z,99351.02
2019-05-21T12:11:40.859Z,99345.34
2019-05-21T12:14:31.438Z,99352.53
2019-05-21T12:17:21.844Z,99346.58
2019-05-21T12:20:14.186Z,99354.02
2019-05-21T12:23:03.759Z,99364.31
2019-05-21T12:25:53.951Z,99362.63
2019-05-21T12:28:44.218Z,99364.34
2019-05-21T12:31:34.408Z,99358.67
2019-05-21T12:34:25.485Z,99361.98
2019-05-21T12:37:15.556Z,99365.08
2019-05-21T12:40:06.222Z,99367.22
2019-05-21T12:42:56.384Z,99364.10
2019-05-21T12:45:46.392Z,99372.19
2019-05-21T12:48:36.261Z,99373.01
2019-05-21T12:51:26.334Z,99373.97
2019-05-21T12:54:16.526Z,99377.72
2019-05-21T12:57:06.510Z,99377.96
2019-05-21T12:59:57.086Z,99376.87
2019-05-21T13:02:47.094Z,99380.52
2019-05-21T13:05:36.788Z,99378.70
2019-05-21T13:08:27.032Z,99381.91
2019-05-21T13:11:17.273Z,99376.87
2019-05-21T13:14:07.348Z,99383.53
2019-05-21T13:16:57.152Z,99377.74
2019-05-21T13:19:46.796Z,99381.05
2019-05-21T13:22:36.670Z,99377.74
2019-05-21T13:25:27.625Z,99380.59
2019-05-21T13:28:17.386Z,99377.48
2019-05-21T13:31:07.205Z,99378.63
2019-05-21T13:33:58.111Z,99383.58
2019-05-21T13:36:47.838Z,99379.42
2019-05-21T13:39:49.336Z,99385.15
2019-05-21T13:42:29.593Z,99396.75
2019-05-21T13:45:20.997Z,99394.78
2019-05-21T13:48:11.207Z,99391.64
2019-05-21T13:51:01.385Z,99390.55
2019-05-21T13:53:51.500Z,99391.61
2019-05-21T13:56:42.038Z,99395.12
2019-05-21T13:59:31.646Z,99401.05
2019-05-21T14:02:21.473Z,99406.06
2019-05-21T14:05:12.171Z,99400.57
2019-05-21T14:08:01.849Z,99402.37
2019-05-21T14:10:51.797Z,99399.13
2019-05-21T14:13:42.308Z,99408.20
2019-05-21T14:16:34.790Z,99411.95
2019-05-21T14:19:24.262Z,99411.39
2019-05-21T14:22:13.959Z,99410.63
2019-05-21T14:25:04.269Z,99410.69
2019-05-21T14:27:54.175Z,99413.03
2019-05-21T14:30:44.495Z,99416.65
2019-05-21T14:33:35.533Z,99416.81
2019-05-21T14:36:25.628Z,99417.99
2019-05-21T14:39:17.639Z,99419.19
2019-05-21T14:42:07.431Z,99416.56
2019-05-21T14:44:57.229Z,99416.72
2019-05-21T14:47:47.156Z,99416.18
2019-05-21T14:50:37.502Z,99418.66
2019-05-21T14:53:27.658Z,99420.89
2019-05-21T14:56:17.137Z,99420.09
2019-05-21T14:59:07.350Z,99419.33
2019-05-21T15:01:57.399Z,99414.09
2019-05-21T15:04:47.577Z,99416.13
2019-05-21T15:07:37.320Z,99419.20
2019-05-21T15:10:27.147Z,99417.20
2019-05-21T15:13:17.527Z,99422.56
2019-05-21T15:16:08.006Z,99421.60
2019-05-21T15:18:57.991Z,99433.45
2019-05-21T15:21:52.064Z,99426.23
2019-05-21T15:24:42.176Z,99427.95
2019-05-21T15:27:32.080Z,99430.30
2019-05-21T15:30:22.193Z,99428.63
2019-05-21T15:33:11.984Z,99420.94
2019-05-21T15:36:01.797Z,99427.91
2019-05-21T15:38:51.545Z,99435.17
2019-05-21T15:41:41.870Z,99439.57
2019-05-21T15:44:32.189Z,99443.80
2019-05-21T15:47:22.098Z,99445.19
2019-05-21T15:50:12.202Z,99449.50
2019-05-21T15:53:01.661Z,99450.22
2019-05-21T15:55:51.726Z,99453.47
2019-05-21T15:58:41.896Z,99454.75
2019-05-21T16:01:31.371Z,99458.35
2019-05-21T16:04:21.610Z,99460.06
2019-05-21T16:07:11.383Z,99460.17
2019-05-21T16:10:01.634Z,99460.78
2019-05-21T16:12:54.338Z,99465.16
2019-05-21T16:15:43.318Z,99467.34
2019-05-21T16:18:33.319Z,99466.19
2019-05-21T16:21:23.390Z,99470.56
2019-05-21T16:24:13.501Z,99468.23
2019-05-21T16:27:03.344Z,99475.39
2019-05-21T16:29:53.058Z,99486.22
2019-05-21T16:32:42.920Z,99490.59
2019-05-21T16:35:33.536Z,99490.23
2019-05-21T16:38:23.722Z,99495.98
2019-05-21T16:41:13.543Z,99501.52
2019-05-21T16:44:03.446Z,99498.84
2019-05-21T16:46:52.989Z,99501.49
2019-05-21T16:49:43.383Z,99506.48
2019-05-21T16:52:32.722Z,99512.32
2019-05-21T16:55:23.003Z,99508.83
2019-05-21T16:58:13.310Z,99510.86
2019-05-21T17:01:05.514Z,99511.27
2019-05-21T17:03:59.785Z,99513.27
2019-05-21T17:06:47.864Z,99515.11
2019-05-21T17:09:38.119Z,99523.89
2019-05-21T17:12:28.018Z,99522.14
2019-05-21T17:15:17.727Z,99519.06
2019-05-21T17:18:07.726Z,99525.59
2019-05-21T17:20:57.806Z,99523.85
2019-05-21T17:23:47.389Z,99526.83
2019-05-21T17:26:37.726Z,99537.98
2019-05-21T17:29:27.441Z,99544.81
2019-05-21T17:32:17.987Z,99545.40
2019-05-21T17:35:08.675Z,99550.33
2019-05-21T17:37:57.856Z,99562.00
2019-05-21T17:40:47.292Z,99564.84
2019-05-21T17:43:36.990Z,99570.43
2019-05-21T17:46:26.418Z,99573.82
2019-05-21T17:49:16.440Z,99581.33
2019-05-21T17:52:06.858Z,99590.31
2019-05-21T17:54:57.719Z,99591.13
2019-05-21T17:57:53.028Z,99601.23
2019-05-21T18:00:54.135Z,99608.58
2019-05-21T18:03:45.109Z,99614.70
2019-05-21T18:06:34.711Z,99623.34
2019-05-21T18:09:25.936Z,99626.30
2019-05-21T18:12:31.183Z,99627.25
2019-05-21T18:15:11.401Z,99638.15
2019-05-21T18:18:02.709Z,99641.03
2019-05-21T18:20:53.022Z,99646.10
2019-05-21T18:23:42.733Z,99654.30
2019-05-21T18:26:32.482Z,99660.61
2019-05-21T18:29:22.801Z,99661.34
2019-05-21T18:32:13.965Z,99665.42
2019-05-21T18:35:04.765Z,99671.59
2019-05-21T18:37:55.166Z,99676.70
2019-05-21T18:40:45.954Z,99669.95
2019-05-21T18:43:36.620Z,99675.53
2019-05-21T18:46:26.152Z,99678.45
2019-05-21T18:49:15.661Z,99680.75
2019-05-21T18:52:06.211Z,99692.22
2019-05-21T18:54:56.192Z,99700.80
2019-05-21T18:57:46.070Z,99701.22
2019-05-21T19:00:36.261Z,99714.26
2019-05-21T19:03:26.307Z,99717.98
2019-05-21T19:06:16.139Z,99719.84
2019-05-21T19:09:07.623Z,99727.30
2019-05-21T19:11:57.869Z,99738.91
2019-05-21T19:14:47.877Z,99735.08
2019-05-21T19:17:37.887Z,99754.37
2019-05-21T19:20:27.753Z,99757.73
2019-05-21T19:23:17.947Z,99764.59
2019-05-21T19:26:08.297Z,99773.42
2019-05-21T19:28:58.359Z,99771.28
2019-05-21T19:31:49.424Z,99784.48
2019-05-21T19:34:39.166Z,99782.37
2019-05-21T19:37:29.396Z,99796.72
2019-05-21T19:40:19.733Z,99795.74
2019-05-21T19:43:09.891Z,99796.34
2019-05-21T19:45:59.614Z,99814.52
2019-05-21T19:48:50.175Z,99817.33
2019-05-21T19:51:40.054Z,99812.55
2019-05-21T19:54:29.888Z,99813.38
2019-05-21T19:57:21.708Z,99821.48
2019-05-21T20:00:13.080Z,99826.22
2019-05-21T20:03:03.350Z,99837.45
2019-05-21T20:05:53.496Z,99837.48
2019-05-21T20:08:45.713Z,99847.70
2019-05-21T20:11:35.412Z,99848.31
2019-05-21T20:14:25.548Z,99849.45
2019-05-21T20:17:16.279Z,99855.03
2019-05-21T20:20:08.354Z,99859.48
2019-05-21T20:22:59.071Z,99859.20
2019-05-21T20:25:56.428Z,99854.89
2019-05-21T20:28:42.380Z,99855.23
2019-05-21T20:31:32.300Z,99852.32
2019-05-21T20:34:23.847Z,99846.05
2019-05-21T20:37:18.778Z,99854.55
2019-05-21T20:40:10.812Z,99862.79
2019-05-21T20:43:01.121Z,99866.69
2019-05-21T20:45:51.785Z,99871.31
2019-05-21T20:48:42.879Z,99868.88
2019-05-21T20:51:34.150Z,99869.73
2019-05-21T20:54:26.216Z,99863.22
2019-05-21T20:57:17.758Z,99873.10
2019-05-21T21:00:10.939Z,99864.34
2019-05-21T21:03:02.297Z,99862.98
2019-05-21T21:05:53.906Z,99863.22
2019-05-21T21:08:46.864Z,99861.88
2019-05-21T21:11:37.569Z,99856.16
2019-05-21T21:14:28.710Z,99855.31
2019-05-21T21:17:19.419Z,99862.43
2019-05-21T21:20:10.707Z,99861.06
2019-05-21T21:23:02.053Z,99853.70
2019-05-21T21:25:52.681Z,99859.27
2019-05-21T21:28:42.555Z,99869.63
2019-05-21T21:31:32.698Z,99875.69
2019-05-21T21:34:23.281Z,99881.98
2019-05-21T21:37:13.744Z,99886.93
2019-05-21T21:40:05.892Z,99889.20
2019-05-21T21:42:55.813Z,99893.61
2019-05-21T21:45:46.011Z,99902.37
2019-05-21T21:48:36.300Z,99900.73
2019-05-21T21:51:26.844Z,99905.38
2019-05-21T21:54:17.084Z,99900.75
2019-05-21T21:57:07.772Z,99899.41
2019-05-21T21:59:57.945Z,99896.92
2019-05-21T22:02:47.351Z,99897.77
2019-05-21T22:05:38.008Z,99890.08
2019-05-21T22:08:28.406Z,99895.83
2019-05-21T22:11:18.281Z,99901.00
2019-05-21T22:14:07.683Z,99899.61
2019-05-21T22:16:57.916Z,99900.95
2019-05-21T22:19:48.117Z,99902.03
2019-05-21T22:22:37.503Z,99904.02
2019-05-21T22:25:27.610Z,99907.30
2019-05-21T22:28:18.324Z,99902.97
2019-05-21T22:31:08.515Z,99902.17
2019-05-21T22:33:58.532Z,99906.82
2019-05-21T22:36:48.736Z,99912.30
2019-05-21T22:39:40.035Z,99910.41
2019-05-21T22:42:32.068Z,99916.45
2019-05-21T22:45:22.909Z,99914.55
2019-05-21T22:48:13.327Z,99918.41
2019-05-21T22:51:04.468Z,99923.61
2019-05-21T22:53:54.214Z,99930.75
2019-05-21T22:56:44.224Z,99932.14
2019-05-21T22:59:33.968Z,99920.16
2019-05-21T23:02:28.014Z,99928.41
2019-05-21T23:05:18.064Z,99919.38
2019-05-21T23:08:08.761Z,99915.30
2019-05-21T23:10:59.164Z,99914.50
2019-05-21T23:13:49.257Z,99912.88
2019-05-21T23:16:40.205Z,99916.44
2019-05-21T23:19:31.821Z,99915.94
2019-05-21T23:22:31.460Z,99915.36
2019-05-21T23:25:22.339Z,99908.84
2019-05-21T23:28:13.687Z,99913.77
2019-05-21T23:31:05.374Z,99909.67
2019-05-21T23:33:58.692Z,99907.48
2019-05-21T23:36:51.602Z,99911.03
2019-05-21T23:39:42.129Z,99911.31
2019-05-21T23:42:33.381Z,99914.05
2019-05-21T23:45:23.267Z,99911.03
2019-05-21T23:48:14.440Z,99917.05
2019-05-21T23:51:04.391Z,99918.19
2019-05-21T23:53:55.173Z,99919.32
2019-05-21T23:56:45.264Z,99912.78
2019-05-21T23:59:35.927Z,99919.68
